createdAt,value
2019-05-02T00:00:54.907Z,63.00
2019-05-02T00:01:54.854Z,61.90
2019-05-02T00:02:54.845Z,65.50
2019-05-02T00:03:54.839Z,64.10
2019-05-02T00:04:55.924Z,72.00
2019-05-02T00:05:54.847Z,69.00
2019-05-02T00:06:54.800Z,67.80
2019-05-02T00:07:58.522Z,70.30
2019-05-02T00:08:54.789Z,72.00
2019-05-02T00:09:54.775Z,72.60
2019-05-02T00:10:54.817Z,71.70
2019-05-02T00:11:58.854Z,73.20
2019-05-02T00:12:54.738Z,76.50
2019-05-02T00:13:54.723Z,71.00
2019-05-02T00:14:56.494Z,72.50
2019-05-02T00:15:55.733Z,73.30
2019-05-02T00:16:54.695Z,73.30
2019-05-02T00:17:56.800Z,72.50
2019-05-02T00:18:55.679Z,72.60
2019-05-02T00:19:54.675Z,72.10
2019-05-02T00:20:57.034Z,75.90
2019-05-02T00:21:55.636Z,72.20
2019-05-02T00:22:54.651Z,76.60
2019-05-02T00:23:59.083Z,71.20
2019-05-02T00:24:55.615Z,71.80
2019-05-02T00:25:54.637Z,71.20
2019-05-02T00:26:56.121Z,73.70
2019-05-02T00:27:55.578Z,70.80
2019-05-02T00:28:54.576Z,73.70
2019-05-02T00:29:58.682Z,69.30
2019-05-02T00:30:55.569Z,72.80
2019-05-02T00:31:54.538Z,70.60
2019-05-02T00:32:58.257Z,77.60
2019-05-02T00:33:55.525Z,74.50
2019-05-02T00:34:54.503Z,75.30
2019-05-02T00:35:54.527Z,71.90
2019-05-02T00:36:54.484Z,77.10
2019-05-02T00:37:57.394Z,77.60
2019-05-02T00:38:55.454Z,77.20
2019-05-02T00:39:54.452Z,73.90
2019-05-02T00:40:57.416Z,77.80
2019-05-02T00:41:55.433Z,78.50
2019-05-02T00:42:58.275Z,81.30
2019-05-02T00:43:55.413Z,82.40
2019-05-02T00:44:54.404Z,86.80
2019-05-02T00:45:55.094Z,85.60
2019-05-02T00:46:55.390Z,85.00
2019-05-02T00:47:54.365Z,84.70
2019-05-02T00:48:59.834Z,80.70
2019-05-02T00:49:55.355Z,89.30
2019-05-02T00:50:54.365Z,88.80
2019-05-02T00:51:56.568Z,86.40
2019-05-02T00:52:55.315Z,83.40
2019-05-02T00:53:54.303Z,90.50
2019-05-02T00:54:54.934Z,88.40
2019-05-02T00:55:54.335Z,86.30
2019-05-02T00:56:54.280Z,86.90
2019-05-02T00:57:55.651Z,94.80
2019-05-02T00:58:54.256Z,90.00
2019-05-02T00:59:54.248Z,90.80
2019-05-02T01:00:54.885Z,102.50
2019-05-02T01:01:54.260Z,101.80
2019-05-02T01:02:54.216Z,101.00
2019-05-02T01:03:54.200Z,99.10
2019-05-02T01:04:54.198Z,100.00
2019-05-02T01:05:54.176Z,114.50
2019-05-02T01:06:54.198Z,117.90
2019-05-02T01:07:56.032Z,117.30
2019-05-02T01:08:55.149Z,125.50
2019-05-02T01:09:54.139Z,120.70
2019-05-02T01:10:56.766Z,130.30
2019-05-02T01:11:54.138Z,123.70
2019-05-02T01:12:54.112Z,137.70
2019-05-02T01:13:55.811Z,134.90
2019-05-02T01:14:54.083Z,143.80
2019-05-02T01:15:54.071Z,138.60
2019-05-02T01:16:54.785Z,131.30
2019-05-02T01:17:54.051Z,131.70
2019-05-02T01:18:54.056Z,129.10
2019-05-02T01:19:54.037Z,136.30
2019-05-02T01:20:58.139Z,175.00
2019-05-02T01:21:55.041Z,170.60
2019-05-02T01:22:54.003Z,174.30
2019-05-02T01:23:53.984Z,183.70
2019-05-02T01:24:53.995Z,184.00
2019-05-02T01:25:54.577Z,172.50
2019-05-02T01:26:53.989Z,187.00
2019-05-02T01:27:53.947Z,186.90
2019-05-02T01:28:55.547Z,196.30
2019-05-02T01:29:53.926Z,177.40
2019-05-02T01:30:53.916Z,183.30
2019-05-02T01:31:54.691Z,188.90
2019-05-02T01:32:53.891Z,184.70
2019-05-02T01:33:53.880Z,189.80
2019-05-02T01:34:54.314Z,196.00
2019-05-02T01:35:53.865Z,206.80
2019-05-02T01:36:53.883Z,201.40
2019-05-02T01:37:54.930Z,197.80
2019-05-02T01:38:53.828Z,188.90
2019-05-02T01:39:53.822Z,187.70
2019-05-02T01:40:54.761Z,194.90
2019-05-02T01:41:53.834Z,182.50
2019-05-02T01:42:53.785Z,197.50
2019-05-02T01:43:54.869Z,187.20
2019-05-02T01:44:54.757Z,199.60
2019-05-02T01:45:53.757Z,202.80
2019-05-02T01:46:53.974Z,196.80
2019-05-02T01:47:53.732Z,203.60
2019-05-02T01:48:53.725Z,191.90
2019-05-02T01:49:57.352Z,202.80
2019-05-02T01:50:54.703Z,196.90
2019-05-02T01:51:53.732Z,186.90
2019-05-02T01:52:58.404Z,189.30
2019-05-02T01:53:54.670Z,197.40
2019-05-02T01:54:53.667Z,199.50
2019-05-02T01:55:57.621Z,199.40
2019-05-02T01:56:54.698Z,202.40
2019-05-02T01:57:53.626Z,188.10
2019-05-02T01:58:57.823Z,196.10
2019-05-02T01:59:54.635Z,189.30
2019-05-02T02:00:53.599Z,189.70
2019-05-02T02:01:57.970Z,199.90
2019-05-02T02:02:54.593Z,189.50
2019-05-02T02:03:53.565Z,193.90
2019-05-02T02:04:56.892Z,181.10
2019-05-02T02:05:53.549Z,196.80
2019-05-02T02:06:53.543Z,185.60
2019-05-02T02:07:55.459Z,193.50
2019-05-02T02:08:53.508Z,186.00
2019-05-02T02:09:53.497Z,186.00
2019-05-02T02:10:56.603Z,195.20
2019-05-02T02:11:53.474Z,194.20
2019-05-02T02:13:03.344Z,188.30
2019-05-02T02:13:54.455Z,177.40
2019-05-02T02:14:55.440Z,183.40
2019-05-02T02:15:53.433Z,173.40
2019-05-02T02:16:53.437Z,172.30
2019-05-02T02:17:53.436Z,169.30
2019-05-02T02:18:53.398Z,156.60
2019-05-02T02:19:53.398Z,164.40
2019-05-02T02:20:53.383Z,157.40
2019-05-02T02:21:57.416Z,158.40
2019-05-02T02:22:54.390Z,154.30
2019-05-02T02:23:53.392Z,152.40
2019-05-02T02:24:55.886Z,147.70
2019-05-02T02:25:54.332Z,154.80
2019-05-02T02:26:53.332Z,141.60
2019-05-02T02:27:54.902Z,141.10
2019-05-02T02:28:54.295Z,138.60
2019-05-02T02:29:53.327Z,132.30
2019-05-02T02:30:57.967Z,131.70
2019-05-02T02:31:54.264Z,123.80
2019-05-02T02:32:53.288Z,131.30
2019-05-02T02:33:53.255Z,129.50
2019-05-02T02:34:53.250Z,116.10
2019-05-02T02:35:53.244Z,119.90
2019-05-02T02:36:53.219Z,119.90
2019-05-02T02:37:55.668Z,115.80
2019-05-02T02:38:53.231Z,116.40
2019-05-02T02:39:54.186Z,115.40
2019-05-02T02:40:53.178Z,109.80
2019-05-02T02:41:54.245Z,114.40
2019-05-02T02:42:53.193Z,109.30
2019-05-02T02:43:54.816Z,109.90
2019-05-02T02:44:54.150Z,111.10
2019-05-02T02:45:57.596Z,111.00
2019-05-02T02:46:54.126Z,103.60
2019-05-02T02:48:00.048Z,107.90
2019-05-02T02:48:54.099Z,104.60
2019-05-02T02:49:56.132Z,103.10
2019-05-02T02:50:54.084Z,100.30
2019-05-02T02:51:57.913Z,101.30
2019-05-02T02:52:54.080Z,97.90
2019-05-02T02:54:02.652Z,103.90
2019-05-02T02:54:54.028Z,95.60
2019-05-02T02:56:01.148Z,100.70
2019-05-02T02:56:54.008Z,95.20
2019-05-02T02:57:58.417Z,93.60
2019-05-02T02:58:54.023Z,93.10
2019-05-02T02:59:52.987Z,91.30
2019-05-02T03:00:52.968Z,88.10
2019-05-02T03:01:52.947Z,90.90
2019-05-02T03:02:52.948Z,88.20
2019-05-02T03:03:52.959Z,89.50
2019-05-02T03:04:52.928Z,91.90
2019-05-02T03:05:58.738Z,87.40
2019-05-02T03:06:53.899Z,84.40
2019-05-02T03:07:52.890Z,84.30
2019-05-02T03:08:52.907Z,86.10
2019-05-02T03:09:52.871Z,91.00
2019-05-02T03:10:52.854Z,84.30
2019-05-02T03:11:56.255Z,83.60
2019-05-02T03:12:53.837Z,78.10
2019-05-02T03:13:54.181Z,83.30
2019-05-02T03:14:53.814Z,79.10
2019-05-02T03:15:52.882Z,82.80
2019-05-02T03:16:52.795Z,84.10
2019-05-02T03:17:52.805Z,80.30
2019-05-02T03:18:52.857Z,81.80
2019-05-02T03:19:54.289Z,85.10
2019-05-02T03:20:53.745Z,81.90
2019-05-02T03:21:54.556Z,85.30
2019-05-02T03:22:53.734Z,85.00
2019-05-02T03:24:01.640Z,84.50
2019-05-02T03:24:53.703Z,90.30
2019-05-02T03:25:52.722Z,87.80
2019-05-02T03:26:55.139Z,86.50
2019-05-02T03:27:52.676Z,85.50
2019-05-02T03:28:58.472Z,89.60
2019-05-02T03:29:53.654Z,87.40
2019-05-02T03:30:52.645Z,89.40
2019-05-02T03:32:11.616Z,90.60
2019-05-02T03:33:06.702Z,91.30
2019-05-02T03:33:59.666Z,85.30
2019-05-02T03:34:54.337Z,89.00
2019-05-02T03:35:52.593Z,90.40
2019-05-02T03:36:52.582Z,88.40
2019-05-02T03:37:53.173Z,98.50
2019-05-02T03:38:52.591Z,89.40
2019-05-02T03:39:57.402Z,91.90
2019-05-02T03:40:53.533Z,93.90
2019-05-02T03:41:55.458Z,95.40
2019-05-02T03:42:53.517Z,89.90
2019-05-02T03:44:09.817Z,93.50
2019-05-02T03:44:56.194Z,93.10
2019-05-02T03:45:53.503Z,95.90
2019-05-02T03:46:54.517Z,95.90
2019-05-02T03:47:53.494Z,96.00
2019-05-02T03:48:52.454Z,93.40
2019-05-02T03:49:52.624Z,92.40
2019-05-02T03:50:52.435Z,92.40
2019-05-02T03:51:55.867Z,97.20
2019-05-02T03:52:53.472Z,93.30
2019-05-02T03:53:52.400Z,96.80
2019-05-02T03:54:52.806Z,92.90
2019-05-02T03:55:52.397Z,92.50
2019-05-02T03:56:53.428Z,93.80
2019-05-02T03:57:52.359Z,92.20
2019-05-02T03:58:56.000Z,98.30
2019-05-02T03:59:53.368Z,93.90
2019-05-02T04:01:00.801Z,99.90
2019-05-02T04:01:53.314Z,99.60
2019-05-02T04:02:58.911Z,97.90
2019-05-02T04:03:53.309Z,95.80
2019-05-02T04:04:54.098Z,93.70
2019-05-02T04:05:53.271Z,102.00
2019-05-02T04:06:54.983Z,102.30
2019-05-02T04:07:53.253Z,97.50
2019-05-02T04:08:58.856Z,99.90
2019-05-02T04:09:53.264Z,100.00
2019-05-02T04:10:58.967Z,95.90
2019-05-02T04:11:53.218Z,97.70
2019-05-02T04:12:53.014Z,98.70
2019-05-02T04:13:53.188Z,100.10
2019-05-02T04:14:55.319Z,104.00
2019-05-02T04:15:52.173Z,101.30
2019-05-02T04:16:55.246Z,103.60
2019-05-02T04:17:53.151Z,101.50
2019-05-02T04:18:55.677Z,98.90
2019-05-02T04:19:53.151Z,99.60
2019-05-02T04:20:52.168Z,99.60
2019-05-02T04:21:54.880Z,107.50
2019-05-02T04:22:52.103Z,104.20
2019-05-02T04:23:52.087Z,104.50
2019-05-02T04:24:56.785Z,102.40
2019-05-02T04:25:53.060Z,105.00
2019-05-02T04:26:55.888Z,100.20
2019-05-02T04:27:52.050Z,107.00
2019-05-02T04:28:53.679Z,101.00
2019-05-02T04:29:52.056Z,97.50
2019-05-02T04:30:53.959Z,99.60
2019-05-02T04:31:51.999Z,95.70
2019-05-02T04:32:55.936Z,98.40
2019-05-02T04:33:51.994Z,94.60
2019-05-02T04:34:55.149Z,98.70
2019-05-02T04:35:52.963Z,93.80
2019-05-02T04:37:00.255Z,89.50
2019-05-02T04:37:52.941Z,88.90
2019-05-02T04:38:52.740Z,87.20
2019-05-02T04:39:53.761Z,85.50
2019-05-02T04:40:52.931Z,88.00
2019-05-02T04:41:51.896Z,87.00
2019-05-02T04:43:02.039Z,84.80
2019-05-02T04:43:57.594Z,85.20
2019-05-02T04:45:11.618Z,81.00
2019-05-02T04:45:57.426Z,84.10
2019-05-02T04:46:59.816Z,83.50
2019-05-02T04:47:58.458Z,86.60
2019-05-02T04:48:53.301Z,85.90
2019-05-02T04:49:52.208Z,94.70
2019-05-02T04:50:52.163Z,88.80
2019-05-02T04:52:01.494Z,92.50
2019-05-02T04:52:54.117Z,86.70
2019-05-02T04:53:51.788Z,86.30
2019-05-02T04:54:51.786Z,87.60
2019-05-02T04:56:01.948Z,84.40
2019-05-02T04:56:55.314Z,87.50
2019-05-02T04:57:51.727Z,86.30
2019-05-02T04:58:51.732Z,83.20
2019-05-02T05:00:02.560Z,81.00
2019-05-02T05:00:58.009Z,81.80
2019-05-02T05:01:57.176Z,84.50
2019-05-02T05:02:53.238Z,82.30
2019-05-02T05:03:58.672Z,80.00
2019-05-02T05:04:52.664Z,78.30
2019-05-02T05:05:51.683Z,79.20
2019-05-02T05:06:56.076Z,82.90
2019-05-02T05:07:52.620Z,82.00
2019-05-02T05:08:51.618Z,76.00
2019-05-02T05:09:57.878Z,78.50
2019-05-02T05:10:52.639Z,81.20
2019-05-02T05:11:53.879Z,74.20
2019-05-02T05:12:52.562Z,77.00
2019-05-02T05:13:52.457Z,75.60
2019-05-02T05:14:52.625Z,76.60
2019-05-02T05:15:52.082Z,71.90
2019-05-02T05:16:55.505Z,77.90
2019-05-02T05:17:52.586Z,72.70
2019-05-02T05:18:53.206Z,69.80
2019-05-02T05:19:51.495Z,73.90
2019-05-02T05:20:52.909Z,71.70
2019-05-02T05:21:51.464Z,70.40
2019-05-02T05:22:51.464Z,71.40
2019-05-02T05:23:51.763Z,71.50
2019-05-02T05:24:51.438Z,72.80
2019-05-02T05:25:55.751Z,69.50
2019-05-02T05:26:52.456Z,71.40
2019-05-02T05:28:05.865Z,68.90
2019-05-02T05:28:51.376Z,68.90
2019-05-02T05:29:53.583Z,69.20
2019-05-02T05:30:54.405Z,67.50
2019-05-02T05:31:55.032Z,67.40
2019-05-02T05:32:52.342Z,66.20
2019-05-02T05:33:51.326Z,65.60
2019-05-02T05:34:51.315Z,64.50
2019-05-02T05:35:52.650Z,65.30
2019-05-02T05:36:51.326Z,68.70
2019-05-02T05:37:52.893Z,69.80
2019-05-02T05:38:51.271Z,68.30
2019-05-02T05:39:52.712Z,69.70
2019-05-02T05:40:51.248Z,73.80
2019-05-02T05:41:52.401Z,71.40
2019-05-02T05:42:51.222Z,68.20
2019-05-02T05:43:53.606Z,70.50
2019-05-02T05:44:51.203Z,67.10
2019-05-02T05:45:56.311Z,73.20
2019-05-02T05:46:52.212Z,67.30
2019-05-02T05:47:56.525Z,67.30
2019-05-02T05:48:52.212Z,68.60
2019-05-02T05:49:52.144Z,68.00
2019-05-02T05:50:52.144Z,70.60
2019-05-02T05:51:54.272Z,69.10
2019-05-02T05:52:52.173Z,67.70
2019-05-02T05:53:52.309Z,67.90
2019-05-02T05:54:52.116Z,70.30
2019-05-02T05:55:53.565Z,71.00
2019-05-02T05:56:52.104Z,71.60
2019-05-02T05:57:59.691Z,72.20
2019-05-02T05:58:52.628Z,66.70
2019-05-02T05:59:51.065Z,68.90
2019-05-02T06:00:55.414Z,68.20
2019-05-02T06:01:52.046Z,70.60
2019-05-02T06:02:56.258Z,70.30
2019-05-02T06:03:51.998Z,74.10
2019-05-02T06:04:55.194Z,74.00
2019-05-02T06:05:51.983Z,74.60
2019-05-02T06:06:54.127Z,72.50
2019-05-02T06:07:51.962Z,67.30
2019-05-02T06:08:54.246Z,72.70
2019-05-02T06:09:50.938Z,73.20
2019-05-02T06:10:50.936Z,74.00
2019-05-02T06:11:55.491Z,70.30
2019-05-02T06:12:50.906Z,71.80
2019-05-02T06:13:50.895Z,67.90
2019-05-02T06:14:50.895Z,67.80
2019-05-02T06:16:01.574Z,63.60
2019-05-02T06:16:53.173Z,71.90
2019-05-02T06:17:50.858Z,66.70
2019-05-02T06:18:50.845Z,66.90
2019-05-02T06:19:53.695Z,67.00
2019-05-02T06:20:50.824Z,70.30
2019-05-02T06:21:50.837Z,70.80
2019-05-02T06:22:54.908Z,71.90
2019-05-02T06:23:51.796Z,68.50
2019-05-02T06:24:52.103Z,70.20
2019-05-02T06:25:50.772Z,72.60
2019-05-02T06:26:51.818Z,70.40
2019-05-02T06:27:50.746Z,72.20
2019-05-02T06:28:50.746Z,71.40
2019-05-02T06:29:51.095Z,73.80
2019-05-02T06:30:51.716Z,72.10
2019-05-02T06:31:50.729Z,73.70
2019-05-02T06:32:54.938Z,68.10
2019-05-02T06:33:51.678Z,68.60
2019-05-02T06:34:50.675Z,66.40
2019-05-02T06:35:51.847Z,64.70
2019-05-02T06:36:51.686Z,62.90
2019-05-02T06:37:51.977Z,67.50
2019-05-02T06:38:52.337Z,65.70
2019-05-02T06:39:51.621Z,65.60
2019-05-02T06:40:50.610Z,67.60
2019-05-02T06:41:52.045Z,67.80
2019-05-02T06:42:51.615Z,67.60
2019-05-02T06:43:50.588Z,67.60
2019-05-02T06:44:54.876Z,70.40
2019-05-02T06:45:51.563Z,67.60
2019-05-02T06:46:50.549Z,66.20
2019-05-02T06:47:50.562Z,68.20
2019-05-02T06:48:52.219Z,66.80
2019-05-02T06:49:50.515Z,70.40
2019-05-02T06:50:50.507Z,70.30
2019-05-02T06:51:50.966Z,74.10
2019-05-02T06:52:51.510Z,68.60
2019-05-02T06:53:50.471Z,68.80
2019-05-02T06:54:54.080Z,69.40
2019-05-02T06:55:51.450Z,68.80
2019-05-02T06:56:50.458Z,67.60
2019-05-02T06:57:51.782Z,65.80
2019-05-02T06:58:50.415Z,72.50
2019-05-02T06:59:54.673Z,70.40
2019-05-02T07:00:58.191Z,71.80
2019-05-02T07:01:52.392Z,70.80
2019-05-02T07:02:51.398Z,69.10
2019-05-02T07:03:50.364Z,68.60
2019-05-02T07:04:54.753Z,69.80
2019-05-02T07:05:50.347Z,69.90
2019-05-02T07:06:58.547Z,67.40
2019-05-02T07:07:51.445Z,68.90
2019-05-02T07:08:50.434Z,69.80
2019-05-02T07:09:50.346Z,68.90
2019-05-02T07:10:50.319Z,66.90
2019-05-02T07:11:56.908Z,63.90
2019-05-02T07:13:02.239Z,68.20
2019-05-02T07:13:51.332Z,64.70
2019-05-02T07:14:50.247Z,67.50
2019-05-02T07:15:50.238Z,68.90
2019-05-02T07:16:54.495Z,73.40
2019-05-02T07:17:51.245Z,70.50
2019-05-02T07:18:50.205Z,69.50
2019-05-02T07:19:50.193Z,72.00
2019-05-02T07:20:50.184Z,71.80
2019-05-02T07:21:53.053Z,67.10
2019-05-02T07:22:51.186Z,69.10
2019-05-02T07:23:53.673Z,68.80
2019-05-02T07:24:50.145Z,66.90
2019-05-02T07:25:50.128Z,66.70
2019-05-02T07:26:52.069Z,65.90
2019-05-02T07:27:51.133Z,68.40
2019-05-02T07:28:50.095Z,65.50
2019-05-02T07:29:52.209Z,67.50
2019-05-02T07:30:51.078Z,69.90
2019-05-02T07:31:50.080Z,67.70
2019-05-02T07:32:50.083Z,65.70
2019-05-02T07:33:50.047Z,65.20
2019-05-02T07:34:50.047Z,61.30
2019-05-02T07:35:50.025Z,65.30
2019-05-02T07:36:50.017Z,62.50
2019-05-02T07:37:50.128Z,66.00
2019-05-02T07:38:49.995Z,63.40
2019-05-02T07:39:49.990Z,63.20
2019-05-02T07:40:53.131Z,63.80
2019-05-02T07:41:49.963Z,60.80
2019-05-02T07:42:49.954Z,65.10
2019-05-02T07:43:52.187Z,63.50
2019-05-02T07:44:50.930Z,61.50
2019-05-02T07:45:49.924Z,62.60
2019-05-02T07:46:51.927Z,59.90
2019-05-02T07:47:49.901Z,59.60
2019-05-02T07:48:54.436Z,58.60
2019-05-02T07:49:49.882Z,60.10
2019-05-02T07:50:50.318Z,57.50
2019-05-02T07:51:52.390Z,55.90
2019-05-02T07:52:50.851Z,56.90
2019-05-02T07:53:49.895Z,60.60
2019-05-02T07:54:49.825Z,56.30
2019-05-02T07:55:49.813Z,55.40
2019-05-02T07:56:53.437Z,57.30
2019-05-02T07:57:49.789Z,117.10
2019-05-02T07:58:49.814Z,57.50
2019-05-02T07:59:50.059Z,60.20
2019-05-02T08:00:49.763Z,56.10
2019-05-02T08:01:50.908Z,59.00
2019-05-02T08:02:49.739Z,54.60
2019-05-02T08:03:49.751Z,57.40
2019-05-02T08:04:49.718Z,52.00
2019-05-02T08:05:49.703Z,54.80
2019-05-02T08:06:49.693Z,52.90
2019-05-02T08:07:53.487Z,55.50
2019-05-02T08:08:50.696Z,54.70
2019-05-02T08:09:49.704Z,50.10
2019-05-02T08:10:53.843Z,57.90
2019-05-02T08:11:50.635Z,52.50
2019-05-02T08:12:49.629Z,53.90
2019-05-02T08:13:55.101Z,53.10
2019-05-02T08:14:50.604Z,56.70
2019-05-02T08:15:50.821Z,55.20
2019-05-02T08:16:49.583Z,53.50
2019-05-02T08:17:53.738Z,53.20
2019-05-02T08:18:50.598Z,53.30
2019-05-02T08:19:49.553Z,56.60
2019-05-02T08:20:51.030Z,54.00
2019-05-02T08:21:50.535Z,52.60
2019-05-02T08:22:50.413Z,52.90
2019-05-02T08:23:49.543Z,55.80
2019-05-02T08:24:49.504Z,52.80
2019-05-02T08:25:49.486Z,50.60
2019-05-02T08:26:53.345Z,54.30
2019-05-02T08:27:50.468Z,54.70
2019-05-02T08:28:51.961Z,53.90
2019-05-02T08:29:49.443Z,54.80
2019-05-02T08:30:49.435Z,50.90
2019-05-02T08:31:49.425Z,50.20
2019-05-02T08:32:49.413Z,51.30
2019-05-02T08:33:49.430Z,50.70
2019-05-02T08:34:51.881Z,53.10
2019-05-02T08:35:49.381Z,52.10
2019-05-02T08:36:49.372Z,50.40
2019-05-02T08:37:49.390Z,50.70
2019-05-02T08:38:53.692Z,50.00
2019-05-02T08:39:50.338Z,50.00
2019-05-02T08:40:49.791Z,52.50
2019-05-02T08:41:51.235Z,50.10
2019-05-02T08:42:50.334Z,50.70
2019-05-02T08:43:49.294Z,49.40
2019-05-02T08:44:51.160Z,50.50
2019-05-02T08:45:49.290Z,47.60
2019-05-02T08:46:51.519Z,47.80
2019-05-02T08:47:49.288Z,48.70
2019-05-02T08:48:50.838Z,50.70
2019-05-02T08:49:54.358Z,48.00
2019-05-02T08:50:50.219Z,46.40
2019-05-02T08:51:49.222Z,47.10
2019-05-02T08:52:49.230Z,45.70
2019-05-02T08:53:52.146Z,45.10
2019-05-02T08:54:50.177Z,44.60
2019-05-02T08:55:49.167Z,45.70
2019-05-02T08:56:53.279Z,45.50
2019-05-02T08:57:50.176Z,44.60
2019-05-02T08:58:49.928Z,43.30
2019-05-02T08:59:49.137Z,45.30
2019-05-02T09:00:49.128Z,45.30
2019-05-02T09:01:49.801Z,45.00
2019-05-02T09:02:49.126Z,44.60
2019-05-02T09:03:55.525Z,43.90
2019-05-02T09:04:58.377Z,45.10
2019-05-02T09:05:50.076Z,44.30
2019-05-02T09:06:53.141Z,44.40
2019-05-02T09:07:50.090Z,44.60
2019-05-02T09:08:51.510Z,44.50
2019-05-02T09:09:49.019Z,44.30
2019-05-02T09:10:49.014Z,44.10
2019-05-02T09:12:07.124Z,42.50
2019-05-02T09:12:51.931Z,41.60
2019-05-02T09:13:49.003Z,42.60
2019-05-02T09:14:48.976Z,44.00
2019-05-02T09:15:51.276Z,42.70
2019-05-02T09:16:48.955Z,43.10
2019-05-02T09:17:52.687Z,42.20
2019-05-02T09:18:51.868Z,42.40
2019-05-02T09:20:00.384Z,43.50
2019-05-02T09:20:52.712Z,44.10
2019-05-02T09:21:52.163Z,43.30
2019-05-02T09:22:52.106Z,42.90
2019-05-02T09:23:51.759Z,43.20
2019-05-02T09:24:48.868Z,42.10
2019-05-02T09:25:48.850Z,42.20
2019-05-02T09:26:48.850Z,40.40
2019-05-02T09:27:48.832Z,41.30
2019-05-02T09:28:48.846Z,40.50
2019-05-02T09:29:48.814Z,39.50
2019-05-02T09:30:48.801Z,39.60
2019-05-02T09:31:48.794Z,39.20
2019-05-02T09:32:48.780Z,39.60
2019-05-02T09:33:48.802Z,38.70
2019-05-02T09:34:48.774Z,39.80
2019-05-02T09:35:48.747Z,38.90
2019-05-02T09:36:48.746Z,38.00
2019-05-02T09:37:48.733Z,40.60
2019-05-02T09:38:53.153Z,39.30
2019-05-02T09:39:49.732Z,39.00
2019-05-02T09:40:52.531Z,40.90
2019-05-02T09:41:49.686Z,41.80
2019-05-02T09:42:53.568Z,42.40
2019-05-02T09:43:49.664Z,43.10
2019-05-02T09:44:53.371Z,43.90
2019-05-02T09:45:51.847Z,42.50
2019-05-02T09:46:53.085Z,44.30
2019-05-02T09:47:57.253Z,43.70
2019-05-02T09:48:51.841Z,43.60
2019-05-02T09:49:50.381Z,44.50
2019-05-02T09:50:48.623Z,45.00
2019-05-02T09:51:50.334Z,47.10
2019-05-02T09:52:49.575Z,46.80
2019-05-02T09:53:48.563Z,45.80
2019-05-02T09:54:48.552Z,45.50
2019-05-02T09:55:55.019Z,44.50
2019-05-02T09:56:49.532Z,47.10
2019-05-02T09:57:48.619Z,43.70
2019-05-02T09:58:49.361Z,42.50
2019-05-02T09:59:50.504Z,43.10
2019-05-02T10:00:49.518Z,45.10
2019-05-02T10:01:48.478Z,45.00
2019-05-02T10:02:48.472Z,42.80
2019-05-02T10:03:48.454Z,43.90
2019-05-02T10:04:48.447Z,42.90
2019-05-02T10:05:48.470Z,42.80
2019-05-02T10:06:48.430Z,45.40
2019-05-02T10:07:48.767Z,43.90
2019-05-02T10:08:48.407Z,43.70
2019-05-02T10:09:48.398Z,44.20
2019-05-02T10:10:48.415Z,42.90
2019-05-02T10:11:48.375Z,43.80
2019-05-02T10:12:48.367Z,44.60
2019-05-02T10:13:48.372Z,44.70
2019-05-02T10:14:48.346Z,45.40
2019-05-02T10:15:48.377Z,45.30
2019-05-02T10:16:48.325Z,45.40
2019-05-02T10:17:48.312Z,46.00
2019-05-02T10:18:48.303Z,47.80
2019-05-02T10:19:49.536Z,46.20
2019-05-02T10:20:48.289Z,45.70
2019-05-02T10:21:52.451Z,45.40
2019-05-02T10:22:49.256Z,45.70
2019-05-02T10:23:53.740Z,43.80
2019-05-02T10:24:49.242Z,45.60
2019-05-02T10:25:48.235Z,45.90
2019-05-02T10:26:48.245Z,43.00
2019-05-02T10:27:48.210Z,44.90
2019-05-02T10:28:50.398Z,45.60
2019-05-02T10:29:48.195Z,45.50
2019-05-02T10:30:52.652Z,45.10
2019-05-02T10:31:49.192Z,43.90
2019-05-02T10:32:55.607Z,44.00
2019-05-02T10:33:49.142Z,42.60
2019-05-02T10:34:55.100Z,43.60
2019-05-02T10:35:49.125Z,43.10
2019-05-02T10:36:54.180Z,43.00
2019-05-02T10:37:49.107Z,44.50
2019-05-02T10:38:49.000Z,43.50
2019-05-02T10:39:49.083Z,42.80
2019-05-02T10:40:53.510Z,42.80
2019-05-02T10:41:49.092Z,41.80
2019-05-02T10:42:48.063Z,40.50
2019-05-02T10:43:51.953Z,40.20
2019-05-02T10:44:49.044Z,42.30
2019-05-02T10:45:52.880Z,41.50
2019-05-02T10:46:49.041Z,39.50
2019-05-02T10:47:48.016Z,42.70
2019-05-02T10:48:47.995Z,42.50
2019-05-02T10:49:48.006Z,42.00
2019-05-02T10:50:48.018Z,43.00
2019-05-02T10:51:49.605Z,41.80
2019-05-02T10:52:47.953Z,41.00
2019-05-02T10:53:52.775Z,41.00
2019-05-02T10:54:48.947Z,42.60
2019-05-02T10:55:47.922Z,43.00
2019-05-02T10:56:47.962Z,41.10
2019-05-02T10:57:47.901Z,43.10
2019-05-02T10:58:47.889Z,40.60
2019-05-02T10:59:47.879Z,41.90
2019-05-02T11:00:47.868Z,42.10
2019-05-02T11:01:47.970Z,42.20
2019-05-02T11:02:47.850Z,42.70
2019-05-02T11:03:47.842Z,41.80
2019-05-02T11:04:47.826Z,42.00
2019-05-02T11:05:47.813Z,41.00
2019-05-02T11:06:47.837Z,40.20
2019-05-02T11:07:47.797Z,40.40
2019-05-02T11:08:47.778Z,40.10
2019-05-02T11:09:47.806Z,40.60
2019-05-02T11:10:47.768Z,41.50
2019-05-02T11:11:47.783Z,42.30
2019-05-02T11:12:47.747Z,40.30
2019-05-02T11:13:47.738Z,39.60
2019-05-02T11:14:47.724Z,37.80
2019-05-02T11:15:47.711Z,37.30
2019-05-02T11:16:47.737Z,39.50
2019-05-02T11:17:47.696Z,40.10
2019-05-02T11:18:47.685Z,40.50
2019-05-02T11:19:47.706Z,37.80
2019-05-02T11:20:47.668Z,37.90
2019-05-02T11:21:56.391Z,38.80
2019-05-02T11:22:48.645Z,39.00
2019-05-02T11:23:47.733Z,38.00
2019-05-02T11:24:47.741Z,38.70
2019-05-02T11:25:47.614Z,38.00
2019-05-02T11:26:47.599Z,36.90
2019-05-02T11:27:47.590Z,37.60
2019-05-02T11:28:47.577Z,39.00
2019-05-02T11:29:47.601Z,39.60
2019-05-02T11:30:47.564Z,39.60
2019-05-02T11:31:47.544Z,37.50
2019-05-02T11:32:47.546Z,37.60
2019-05-02T11:33:47.536Z,36.50
2019-05-02T11:34:47.548Z,39.60
2019-05-02T11:35:48.934Z,39.80
2019-05-02T11:36:47.504Z,39.70
2019-05-02T11:37:47.490Z,40.20
2019-05-02T11:38:54.006Z,41.10
2019-05-02T11:39:52.663Z,41.10
2019-05-02T11:40:48.458Z,42.40
2019-05-02T11:41:47.460Z,40.40
2019-05-02T11:42:47.442Z,40.70
2019-05-02T11:43:47.435Z,41.10
2019-05-02T11:44:47.419Z,41.10
2019-05-02T11:45:47.442Z,41.00
2019-05-02T11:46:47.402Z,42.30
2019-05-02T11:47:47.392Z,42.30
2019-05-02T11:48:57.270Z,42.60
2019-05-02T11:49:52.030Z,37.30
2019-05-02T11:50:48.384Z,41.20
2019-05-02T11:51:52.691Z,39.30
2019-05-02T11:52:48.353Z,36.60
2019-05-02T11:53:47.338Z,37.10
2019-05-02T11:54:48.655Z,39.50
2019-05-02T11:55:47.348Z,38.90
2019-05-02T11:56:49.286Z,37.60
2019-05-02T11:57:47.303Z,38.00
2019-05-02T11:58:48.413Z,38.40
2019-05-02T11:59:47.272Z,38.10
2019-05-02T12:00:49.668Z,37.80
2019-05-02T12:01:59.018Z,38.10
2019-05-02T12:02:49.157Z,38.50
2019-05-02T12:03:47.255Z,39.50
2019-05-02T12:04:51.868Z,38.20
2019-05-02T12:05:48.278Z,39.10
2019-05-02T12:06:50.071Z,39.20
2019-05-02T12:07:48.182Z,39.80
2019-05-02T12:08:49.382Z,40.30
2019-05-02T12:09:52.050Z,38.80
2019-05-02T12:10:48.178Z,40.70
2019-05-02T12:11:47.456Z,39.40
2019-05-02T12:12:47.135Z,38.70
2019-05-02T12:13:51.409Z,40.70
2019-05-02T12:14:48.114Z,41.60
2019-05-02T12:15:47.142Z,40.80
2019-05-02T12:16:47.094Z,37.40
2019-05-02T12:17:47.088Z,40.00
2019-05-02T12:18:47.077Z,38.90
2019-05-02T12:19:47.064Z,39.00
2019-05-02T12:20:47.079Z,39.00
2019-05-02T12:21:47.053Z,39.90
2019-05-02T12:22:47.066Z,38.10
2019-05-02T12:23:47.037Z,37.50
2019-05-02T12:24:47.019Z,40.60
2019-05-02T12:25:47.032Z,41.30
2019-05-02T12:26:46.993Z,40.20
2019-05-02T12:27:46.988Z,38.80
2019-05-02T12:28:46.993Z,39.30
2019-05-02T12:29:50.225Z,39.30
2019-05-02T12:30:47.981Z,37.50
2019-05-02T12:31:47.185Z,39.50
2019-05-02T12:32:46.951Z,38.50
2019-05-02T12:33:46.918Z,39.20
2019-05-02T12:34:46.914Z,39.80
2019-05-02T12:35:46.926Z,40.00
2019-05-02T12:36:46.886Z,38.10
2019-05-02T12:37:47.205Z,37.70
2019-05-02T12:38:46.868Z,36.60
2019-05-02T12:39:46.893Z,38.10
2019-05-02T12:40:46.880Z,35.80
2019-05-02T12:41:47.185Z,37.10
2019-05-02T12:42:46.830Z,38.20
2019-05-02T12:43:46.821Z,36.90
2019-05-02T12:44:46.803Z,34.80
2019-05-02T12:45:46.819Z,35.60
2019-05-02T12:46:46.787Z,36.10
2019-05-02T12:47:46.776Z,35.60
2019-05-02T12:48:46.772Z,45.20